This is the latest recevied weather packets stored in our database for station/object LRTM. If no packets are shown the sender has not sent any weather packets the latest 10 day(s).
| Time | Temp. | Humidity | Pressure | Rain* | Wind** | Luminosity | Snow |
|---|---|---|---|---|---|---|---|
| 1777407506 | 7.78° C | 57% | 1018 hPa | - | - | - | - |
| 1777406606 | 7.78° C | 57% | 1018 hPa | - | - | - | - |
| 1777405762 | 10° C | 50% | 1018 hPa | - | - | - | - |
| 1777404808 | 10° C | 50% | 1018 hPa | - | - | - | - |
| 1777403930 | 10° C | 50% | 1018 hPa | - | - | - | - |
| 1777403006 | 10° C | 50% | 1018 hPa | - | - | - | - |
| 1777402106 | 12.22° C | 44% | 1018 hPa | - | - | - | - |
| 1777401207 | 12.22° C | 44% | 1018 hPa | - | - | - | - |
| 1777400307 | 11.11° C | 50% | 1017 hPa | - | - | - | - |
| 1777399407 | 11.11° C | 50% | 1017 hPa | - | - | - | - |
| 1777398506 | 12.78° C | 44% | 1017 hPa | - | - | - | - |
| 1777397606 | 12.78° C | 44% | 1017 hPa | - | - | - | - |
| 1777396784 | 15° C | 36% | 1017 hPa | - | - | - | - |
| 1777395806 | 15° C | 36% | 1017 hPa | - | - | - | - |
| 1777394907 | 17.22° C | 30% | 1017 hPa | - | - | - | - |
| 1777394006 | 17.22° C | 30% | 1017 hPa | - | - | - | - |
| 1777393107 | 17.22° C | 30% | 1017 hPa | - | - | - | - |
| 1777392206 | 17.22° C | 30% | 1017 hPa | - | - | - | - |
| 1777391307 | 17.78° C | 28% | 1017 hPa | - | - | - | - |
| 1777390406 | 17.78° C | 28% | 1017 hPa | - | - | - | - |
| 1777389506 | 17.78° C | 30% | 1017 hPa | - | - | - | - |
| 1777388607 | 17.78° C | 30% | 1017 hPa | - | - | - | - |
| 1777387707 | 17.78° C | 26% | 1017 hPa | - | - | - | - |
| 1777386806 | 17.78° C | 26% | 1017 hPa | - | - | - | - |
| 1777385906 | 17.22° C | 32% | 1017 hPa | - | - | - | - |
* Rain since midnight (hover to see other rain measurements)
** Current wind speed in m/s (hover to see current wind gust speed)